Terminal Aerodrome Forecast
Issued by NWS Cleveland, OH

Home | Current Version | Previous Version | Graphics & Text | Print | Product List | Glossary On
Versions: 1 2 3 4 5 6 7 8 9 10 11 12 13 14 15 16 17 18 19
000
FTUS41 KCLE 221100
TAFYNG
TAF
KYNG 221139Z 2212/2312 36010KT 6SM BR OVC004
     FM221300 36010KT P6SM OVC007
     FM221500 36010KT P6SM OVC012
     FM221700 36010KT P6SM OVC025
     FM222000 36008KT P6SM BKN035
     FM230000 34005KT P6SM BKN035=

USA.gov is the U.S. government's official web portal to all federal, state and local government web resources and services.